CST,Max TemperatureF,Mean TemperatureF,Min TemperatureF,Max Dew PointF,MeanDew PointF,Min DewpointF,Max Humidity, Mean Humidity, Min Humidity, Max Sea Level PressureIn, Mean Sea Level PressureIn, Min Sea Level PressureIn, Max VisibilityMiles, Mean VisibilityMiles, Min VisibilityMiles, Max Wind SpeedMPH, Mean Wind SpeedMPH, Max Gust SpeedMPH,PrecipitationIn, CloudCover, Events, WindDirDegrees
2012-11-1,44,37,30,32,23,18,87,61,39,29.93,29.86,29.83,10,10,10,17,9,,0.00,5,,304
2012-11-2,42,35,28,30,28,25,93,83,53,30.18,30.05,29.94,10,10,10,9,5,,0.00,1,,324
2012-11-3,41,34,26,28,26,23,93,80,57,30.24,30.20,30.17,10,10,7,9,1,,0.00,3,,353
2012-11-4,42,34,26,28,26,23,93,83,46,30.25,30.22,30.18,10,10,10,7,2,,0.00,1,,300
2012-11-5,37,30,23,34,29,21,100,91,81,30.22,30.18,30.11,10,10,7,12,2,,0.00,5,,78
2012-11-6,37,32,28,34,31,25,100,88,75,30.11,29.96,29.88,10,6,2,10,4,,0.01,7,Rain,159
2012-11-7,41,37,33,39,36,34,100,98,93,30.16,30.05,29.90,4,3,1,5,2,,0.00,8,Rain,349
2012-11-8,41,36,32,37,34,32,100,91,70,30.19,30.13,30.08,10,6,2,14,2,,0.00,5,,194
2012-11-9,46,37,28,43,36,28,100,92,76,30.11,30.06,30.00,10,4,2,10,2,16,0.00,5,,68
2012-11-10,62,53,44,54,47,43,100,78,55,30.03,29.91,29.81,10,8,4,17,10,29,0.00,5,,143
2012-11-11,62,48,33,54,46,34,100,78,63,29.89,29.83,29.66,10,9,4,21,14,34,0.10,5,Rain,208
2012-11-12,33,28,23,34,22,14,100,79,64,30.30,30.09,29.89,10,10,2,21,14,29,0.00,7,Snow,257
2012-11-13,37,28,19,23,18,14,93,69,48,30.47,30.40,30.25,10,10,10,14,8,18,0.00,1,,234
2012-11-14,42,34,26,39,26,21,87,76,49,30.48,30.42,30.35,10,10,10,12,4,,0.00,3,,175
2012-11-15,48,38,28,30,28,25,87,76,46,30.36,30.33,30.28,10,10,7,9,4,,0.00,1,,196
2012-11-16,46,37,28,39,31,25,100,91,71,30.48,30.43,30.35,10,7,0,9,1,,0.00,3,Fog,71
2012-11-17,51,38,26,36,33,27,100,87,41,30.53,30.48,30.45,10,5,0,9,3,,0.00,3,Fog,160
2012-11-18,53,40,28,36,33,28,100,74,44,30.44,30.37,30.30,10,9,4,9,6,,0.00,0,,158
2012-11-19,53,43,33,43,37,30,93,79,47,30.30,30.20,30.10,10,9,4,12,4,,0.00,5,Rain,161
2012-11-20,53,43,33,45,40,34,100,90,67,30.17,30.12,30.08,10,5,0,8,2,,0.00,4,Fog,286
2012-11-21,57,44,30,43,36,30,100,86,51,30.20,30.12,30.02,10,5,0,10,3,18,0.00,4,Fog,199
2012-11-22,62,52,39,48,40,32,87,75,48,30.02,29.86,29.71,10,9,5,29,12,37,0.00,2,,209
2012-11-23,37,30,23,32,21,14,81,70,59,30.19,30.00,29.80,10,10,10,36,23,46,0.00,8,,287
2012-11-24,28,24,21,21,16,12,74,68,55,30.23,30.10,29.92,10,10,10,18,11,25,0.00,6,,253
2012-11-25,37,30,23,23,21,19,86,74,52,30.08,29.92,29.83,10,10,10,12,7,18,0.00,3,,263
2012-11-26,28,22,17,19,14,9,86,70,54,30.36,30.24,30.08,10,10,10,10,7,17,0.00,2,,301
2012-11-27,37,22,8,16,11,5,85,65,36,30.37,30.29,30.20,10,10,10,10,5,18,0.00,3,,253
2012-11-28,37,29,21,21,18,14,80,65,48,30.34,30.25,30.20,10,10,10,9,6,,0.00,1,,234
2012-11-29,48,39,30,37,28,23,100,75,46,30.22,30.15,30.08,10,9,4,8,5,,0.00,3,,188
2012-11-30,41,38,35,39,36,34,100,91,81,30.18,30.13,30.08,7,5,2,13,8,17,0.00,8,,64